Lizella, Georgia
Current Conditions -  °F | °C
As of 6:53 PM on Wednesday 26 Nov 2014 (Local Time) from KMCN Reporting Station
Clear Clear  
Wind Chill: 44°   Ceiling: Unl
Heat Index: 44°   Visibility: 10mi
Dew Point: 32°   Wind: 3mph
Humidity: 63%   Direction: 260°W
Pressure: 30.11"   Gusts: NA
Location:  32.81°N, 83.82°W
Report Text: KMCN 262353Z 26003KT 10SM CLR 07/00 A3011 RMK AO2 SLP196 T00670000 10156 20067 53007
Loading
Personal Weather Stations






























Interactive Weather Map New forecast layout! Learn more

10-Day Weather Forecast

Advertisements
Track Severe Weather on mobile